Time;durP1;ratioP1;P1;durP2;ratioP2;P2;SDS_P1;SDS_P2;PMS_P1;PMS_P2;Temp;Humidity;BMP_temperature;BMP_pressure;BME280_temperature;BME280_humidity;BME280_pressure;Samples;Min_cycle;Max_cycle;Signal;HPM_P1;HPM_P2
2023/12/24 00:00:38;;;;;;;15.00;3.25;;;9.80;99.90;;;;;;5111731;27;20134;-70
2023/12/24 00:03:04;;;;;;;13.32;2.42;;;9.80;99.90;;;;;;5108856;28;20448;-70
2023/12/24 00:05:30;;;;;;;13.15;2.50;;;9.70;99.90;;;;;;5111185;28;20467;-70
2023/12/24 00:07:56;;;;;;;10.73;2.25;;;9.80;99.90;;;;;;5100394;28;20039;-71
2023/12/24 00:10:21;;;;;;;8.93;2.45;;;9.60;99.90;;;;;;5117381;28;20046;-71
2023/12/24 00:12:47;;;;;;;12.43;2.35;;;9.80;99.90;;;;;;5125878;28;20716;-70
2023/12/24 00:15:15;;;;;;;11.43;2.13;;;8.70;99.90;;;;;;5118819;28;20112;-71
2023/12/24 00:17:40;;;;;;;15.25;3.38;;;9.70;99.90;;;;;;5114885;28;20032;-70
2023/12/24 00:20:07;;;;;;;12.93;2.85;;;9.30;99.90;;;;;;5124623;28;20091;-70
2023/12/24 00:22:33;;;;;;;;;;;8.80;99.90;;;;;;5101759;28;20071;-71
2023/12/24 00:24:58;;;;;;;13.65;2.47;;;9.90;99.90;;;;;;5111503;28;19982;-71
2023/12/24 00:27:24;;;;;;;14.98;2.92;;;9.80;99.90;;;;;;5114013;28;20058;-71
2023/12/24 00:29:49;;;;;;;12.60;2.60;;;8.90;99.90;;;;;;5121313;28;20095;-71
2023/12/24 00:32:16;;;;;;;13.15;2.67;;;9.90;99.90;;;;;;5090637;28;20130;-71
2023/12/24 00:34:42;;;;;;;14.07;2.78;;;9.90;99.90;;;;;;5104554;28;20043;-71
2023/12/24 00:37:08;;;;;;;12.43;2.70;;;9.20;99.90;;;;;;5092780;28;20551;-71
2023/12/24 00:39:33;;;;;;;15.10;2.90;;;9.90;99.90;;;;;;5091094;28;20040;-71
2023/12/24 00:41:59;;;;;;;8.40;2.50;;;8.80;99.90;;;;;;5092533;28;20043;-70
2023/12/24 00:44:25;;;;;;;12.25;2.53;;;9.70;99.90;;;;;;5093452;28;20035;-70
2023/12/24 00:46:51;;;;;;;13.57;2.50;;;9.90;99.90;;;;;;5091898;28;20055;-75
2023/12/24 00:49:17;;;;;;;13.50;3.13;;;8.70;99.90;;;;;;5116165;28;20116;-75
2023/12/24 00:51:43;;;;;;;12.18;2.78;;;8.70;99.90;;;;;;5120480;28;20112;-75
2023/12/24 00:54:10;;;;;;;16.42;2.67;;;9.40;99.90;;;;;;5096099;28;20035;-75
2023/12/24 00:56:36;;;;;;;12.40;2.47;;;9.80;99.90;;;;;;5094087;28;20040;-75
2023/12/24 00:59:01;;;;;;;12.10;2.90;;;9.80;99.90;;;;;;5108419;28;20042;-75
2023/12/24 01:01:27;;;;;;;14.55;3.03;;;9.90;99.90;;;;;;5118802;28;20049;-75
2023/12/24 01:03:53;;;;;;;11.60;2.45;;;8.70;99.90;;;;;;5124281;28;20051;-75
2023/12/24 01:06:18;;;;;;;13.68;2.60;;;9.90;99.90;;;;;;5110208;28;20046;-75
2023/12/24 01:08:44;;;;;;;15.65;2.88;;;9.80;99.90;;;;;;5117435;28;20077;-75
2023/12/24 01:11:10;;;;;;;11.75;2.70;;;9.80;99.90;;;;;;5095029;28;20088;-75
2023/12/24 01:13:35;;;;;;;10.45;2.40;;;8.60;99.90;;;;;;5114691;27;20047;-75
2023/12/24 01:16:01;;;;;;;12.18;2.38;;;9.80;99.90;;;;;;5122055;27;20050;-75
2023/12/24 01:18:27;;;;;;;12.65;2.40;;;9.80;99.90;;;;;;5128580;27;20491;-75
2023/12/24 01:20:53;;;;;;;14.73;2.80;;;9.70;99.90;;;;;;5119208;27;20043;-74
2023/12/24 01:23:18;;;;;;;11.45;2.45;;;8.70;99.90;;;;;;5119579;27;20077;-74
2023/12/24 01:25:45;;;;;;;11.15;2.50;;;9.80;99.90;;;;;;5114435;27;20042;-74
2023/12/24 01:28:10;;;;;;;8.20;2.13;;;8.70;99.90;;;;;;5114335;27;20071;-75
2023/12/24 01:30:36;;;;;;;14.25;2.70;;;9.70;99.90;;;;;;5123581;27;20074;-75
2023/12/24 01:33:02;;;;;;;12.55;2.88;;;9.90;99.90;;;;;;5112937;27;20073;-75
2023/12/24 01:35:27;;;;;;;10.95;2.17;;;9.30;99.90;;;;;;5113662;27;20032;-74
2023/12/24 01:37:54;;;;;;;12.13;2.22;;;8.60;99.90;;;;;;5118366;27;20039;-75
2023/12/24 01:40:19;;;;;;;8.65;2.30;;;9.80;99.90;;;;;;5115719;27;20046;-75
2023/12/24 01:42:45;;;;;;;10.13;2.45;;;9.20;99.90;;;;;;5117857;27;20539;-75
2023/12/24 01:45:11;;;;;;;13.30;2.40;;;8.80;99.90;;;;;;5123119;27;20043;-75
2023/12/24 01:47:37;;;;;;;7.78;2.15;;;9.50;99.90;;;;;;5117799;27;20062;-75
2023/12/24 01:50:03;;;;;;;;;;;8.80;99.90;;;;;;5122163;27;20055;-75
2023/12/24 01:52:29;;;;;;;10.18;2.50;;;9.90;99.90;;;;;;5119265;27;20461;-74
2023/12/24 01:54:56;;;;;;;7.13;1.83;;;9.90;99.90;;;;;;5100156;27;20136;-74
2023/12/24 01:57:21;;;;;;;;;;;9.80;99.90;;;;;;5112391;27;20043;-75
2023/12/24 01:59:48;;;;;;;6.30;1.83;;;8.80;99.90;;;;;;5127313;27;19919;-74
2023/12/24 02:02:14;;;;;;;8.90;1.90;;;9.90;99.90;;;;;;5113240;27;20044;-76
2023/12/24 02:04:40;;;;;;;5.07;1.50;;;9.70;99.90;;;;;;5123134;27;20106;-75
2023/12/24 02:07:06;;;;;;;5.05;1.20;;;9.70;99.90;;;;;;5118606;27;20043;-74
2023/12/24 02:09:32;;;;;;;4.00;1.40;;;9.90;99.90;;;;;;5119807;27;20081;-75
2023/12/24 02:11:58;;;;;;;4.88;1.60;;;8.70;99.90;;;;;;5095829;27;20075;-75
2023/12/24 02:14:24;;;;;;;7.20;1.92;;;8.60;99.90;;;;;;5109239;27;20043;-75
2023/12/24 02:16:50;;;;;;;6.78;1.70;;;9.30;99.90;;;;;;5120434;27;20051;-74
2023/12/24 02:19:18;;;;;;;6.10;1.60;;;8.70;99.90;;;;;;5100658;27;20099;-70
2023/12/24 02:21:44;;;;;;;8.60;2.05;;;8.60;99.90;;;;;;5126016;27;20048;-70
2023/12/24 02:24:10;;;;;;;8.88;1.55;;;9.10;99.90;;;;;;5114796;27;20045;-69
2023/12/24 02:26:47;;;;;;;;;;;9.30;99.90;;;;;;5122597;27;20390;-69
2023/12/24 02:29:22;;;;;;;9.50;1.80;;;9.50;99.90;;;;;;5116436;27;19927;-70
2023/12/24 02:31:53;;;;;;;11.30;2.28;;;10.00;99.90;;;;;;5129968;27;20042;-69
2023/12/24 02:34:20;;;;;;;9.07;2.08;;;9.00;99.90;;;;;;5122491;27;20542;-69
2023/12/24 02:36:47;;;;;;;10.48;2.30;;;9.80;99.90;;;;;;5126363;27;20078;-69
2023/12/24 02:39:12;;;;;;;10.02;2.65;;;9.90;99.90;;;;;;5115806;27;20051;-70
2023/12/24 02:41:38;;;;;;;10.20;2.53;;;9.90;99.90;;;;;;5117314;27;20047;-69
2023/12/24 02:44:04;;;;;;;9.20;2.20;;;9.50;99.90;;;;;;5122276;27;20089;-69
2023/12/24 02:46:30;;;;;;;10.90;2.75;;;10.00;99.90;;;;;;5114310;27;20432;-69
2023/12/24 02:48:55;;;;;;;12.55;2.42;;;8.80;99.90;;;;;;5104360;28;20406;-69
2023/12/24 02:51:21;;;;;;;9.40;2.22;;;8.80;99.90;;;;;;5114043;27;20088;-69
2023/12/24 02:53:47;;;;;;;9.95;2.20;;;8.90;99.90;;;;;;5095807;27;20043;-70
2023/12/24 02:56:13;;;;;;;10.15;2.50;;;9.40;99.90;;;;;;5113095;27;20035;-70
2023/12/24 02:58:39;;;;;;;9.88;2.20;;;9.40;99.90;;;;;;5113392;27;20059;-70
2023/12/24 03:01:04;;;;;;;11.13;2.03;;;9.00;99.90;;;;;;5102707;28;20027;-70
2023/12/24 03:03:30;;;;;;;6.80;1.85;;;8.90;99.90;;;;;;5095077;28;20428;-70
2023/12/24 03:05:55;;;;;;;7.88;1.70;;;10.00;99.90;;;;;;5115303;27;20483;-70
2023/12/24 03:08:21;;;;;;;9.43;1.83;;;9.60;99.90;;;;;;5111382;27;20523;-69
2023/12/24 03:10:47;;;;;;;8.52;2.05;;;9.30;99.90;;;;;;5099766;27;20135;-70
2023/12/24 03:13:13;;;;;;;8.20;1.95;;;9.30;99.90;;;;;;5119046;27;20118;-70
2023/12/24 03:15:38;;;;;;;8.70;1.75;;;10.10;99.90;;;;;;5096834;27;20035;-69
2023/12/24 03:18:04;;;;;;;7.43;1.70;;;8.90;99.90;;;;;;5118973;27;20069;-69
2023/12/24 03:20:30;;;;;;;7.50;1.90;;;9.60;99.90;;;;;;5113725;27;20044;-70
2023/12/24 03:22:56;;;;;;;8.77;1.67;;;10.10;99.90;;;;;;5137026;27;20038;-70
2023/12/24 03:25:21;;;;;;;6.75;1.48;;;9.80;99.90;;;;;;5124886;27;20423;-69
2023/12/24 03:27:47;;;;;;;6.07;1.45;;;10.10;99.90;;;;;;5109791;27;20390;-69
2023/12/24 03:30:13;;;;;;;9.10;1.70;;;8.90;99.90;;;;;;5119994;27;20043;-69
2023/12/24 03:32:38;;;;;;;6.75;1.50;;;9.00;99.90;;;;;;5123225;27;20413;-70
2023/12/24 03:35:04;;;;;;;6.57;1.30;;;10.20;99.90;;;;;;5118579;27;20057;-69
2023/12/24 03:37:30;;;;;;;7.72;1.40;;;9.00;99.90;;;;;;5116772;27;20031;-76
2023/12/24 03:39:56;;;;;;;6.65;1.40;;;9.30;99.90;;;;;;5113879;27;20045;-75
2023/12/24 03:42:21;;;;;;;4.18;1.27;;;9.00;99.90;;;;;;5119477;27;20043;-74
2023/12/24 03:44:47;;;;;;;7.53;1.60;;;10.00;99.90;;;;;;5114687;27;20048;-75
2023/12/24 03:47:12;;;;;;;6.85;1.20;;;9.10;99.90;;;;;;5102610;27;20056;-75
2023/12/24 03:49:38;;;;;;;4.32;0.93;;;9.50;99.90;;;;;;5119687;27;20052;-74
2023/12/24 03:52:05;;;;;;;3.63;0.80;;;9.00;99.90;;;;;;5111856;27;20039;-75
2023/12/24 03:54:30;;;;;;;3.17;1.00;;;9.00;99.90;;;;;;5110564;27;20046;-75
2023/12/24 03:56:56;;;;;;;3.17;0.80;;;9.70;99.90;;;;;;5112374;27;20162;-75
2023/12/24 03:59:22;;;;;;;3.90;0.75;;;9.10;99.90;;;;;;5120174;27;20054;-75
2023/12/24 04:01:47;;;;;;;2.95;1.02;;;9.20;99.90;;;;;;5125888;27;20051;-74
2023/12/24 04:04:13;;;;;;;4.15;0.68;;;9.70;99.90;;;;;;5076627;28;20049;-75
2023/12/24 04:06:39;;;;;;;4.47;0.77;;;9.90;99.90;;;;;;5111396;27;20047;-74
2023/12/24 04:09:04;;;;;;;3.35;0.77;;;10.10;99.90;;;;;;5108223;28;20071;-75
2023/12/24 04:11:30;;;;;;;2.53;0.77;;;9.40;99.90;;;;;;5110537;28;20047;-75
2023/12/24 04:13:56;;;;;;;2.35;0.65;;;9.30;99.90;;;;;;5117215;28;20070;-75
2023/12/24 04:16:21;;;;;;;1.60;0.70;;;10.20;99.90;;;;;;5124484;28;20064;-75
2023/12/24 04:18:47;;;;;;;3.60;0.70;;;9.20;99.90;;;;;;5116639;28;20047;-75
2023/12/24 04:21:13;;;;;;;1.40;0.70;;;9.30;99.90;;;;;;5115510;28;21597;-75
2023/12/24 04:23:38;;;;;;;0.95;0.60;;;9.20;99.90;;;;;;5119723;28;20043;-74
2023/12/24 04:26:04;;;;;;;1.85;0.90;;;9.20;99.90;;;;;;5111789;28;20497;-75
2023/12/24 04:28:31;;;;;;;1.80;0.60;;;10.00;99.90;;;;;;5100654;28;20031;-74
2023/12/24 04:30:56;;;;;;;1.17;0.60;;;9.30;99.90;;;;;;5107895;28;20050;-73
2023/12/24 04:33:22;;;;;;;1.90;0.52;;;9.50;99.90;;;;;;5116642;28;20043;-75
2023/12/24 04:35:47;;;;;;;1.10;0.55;;;9.40;99.90;;;;;;5128629;28;20149;-74
2023/12/24 04:38:14;;;;;;;1.80;0.55;;;9.90;99.90;;;;;;5113783;28;20080;-75
2023/12/24 04:40:39;;;;;;;0.82;0.57;;;9.20;99.90;;;;;;5092670;28;20067;-74
2023/12/24 04:43:05;;;;;;;2.45;0.60;;;9.80;99.90;;;;;;5116091;28;20535;-74
2023/12/24 04:45:31;;;;;;;1.70;0.60;;;9.30;99.90;;;;;;5119595;28;20043;-75
2023/12/24 04:47:58;;;;;;;3.10;0.60;;;10.40;99.90;;;;;;5108459;27;20090;-74
2023/12/24 04:50:25;;;;;;;2.60;0.63;;;9.80;99.90;;;;;;5105229;27;20083;-75
2023/12/24 04:52:51;;;;;;;2.67;0.90;;;9.40;99.90;;;;;;5121017;27;20043;-75
2023/12/24 04:55:16;;;;;;;3.30;0.90;;;10.00;99.90;;;;;;5125851;27;20036;-75
2023/12/24 04:57:42;;;;;;;5.75;1.10;;;9.30;99.90;;;;;;5120542;27;20104;-74
2023/12/24 05:00:08;;;;;;;3.15;0.70;;;10.50;99.90;;;;;;5109935;27;20483;-75
2023/12/24 05:02:34;;;;;;;3.30;0.70;;;10.40;99.90;;;;;;5121804;27;20455;-75
2023/12/24 05:05:03;;;;;;;2.72;0.80;;;9.60;99.90;;;;;;5117544;27;20127;-74
2023/12/24 05:07:29;;;;;;;2.10;0.95;;;9.80;99.90;;;;;;5112384;27;20435;-74
2023/12/24 05:09:55;;;;;;;4.78;1.00;;;9.40;99.90;;;;;;5113490;27;20047;-74
2023/12/24 05:12:21;;;;;;;3.15;0.82;;;10.10;99.90;;;;;;5118789;27;20035;-74
2023/12/24 05:14:47;;;;;;;4.25;1.30;;;9.40;99.90;;;;;;5100162;27;20042;-74
2023/12/24 05:17:12;;;;;;;3.92;1.10;;;9.60;99.90;;;;;;5119565;27;20050;-75
2023/12/24 05:19:38;;;;;;;4.47;1.48;;;9.50;99.90;;;;;;5120581;27;20126;-75
2023/12/24 05:22:03;;;;;;;8.88;1.60;;;10.60;99.90;;;;;;5123384;27;20482;-75
2023/12/24 05:24:29;;;;;;;7.05;1.25;;;9.60;99.90;;;;;;5121402;27;20398;-75
2023/12/24 05:26:55;;;;;;;6.72;1.55;;;10.40;99.90;;;;;;5118453;27;20047;-75
2023/12/24 05:29:20;;;;;;;6.60;1.70;;;10.60;99.90;;;;;;5119319;27;20114;-75
2023/12/24 05:31:46;;;;;;;6.60;1.67;;;9.50;99.90;;;;;;5098558;27;20095;-70
2023/12/24 05:34:12;;;;;;;7.28;1.50;;;9.70;99.90;;;;;;5124556;27;20043;-69
2023/12/24 05:36:39;;;;;;;5.15;1.75;;;9.60;99.90;;;;;;5124379;27;20089;-70
2023/12/24 05:39:06;;;;;;;5.50;1.80;;;10.30;99.90;;;;;;5121307;27;20038;-70
2023/12/24 05:41:32;;;;;;;5.28;1.52;;;10.70;99.90;;;;;;5112775;27;20058;-71
2023/12/24 05:43:58;;;;;;;5.65;1.55;;;9.90;99.90;;;;;;5112110;27;21044;-76
2023/12/24 05:46:24;;;;;;;9.18;1.73;;;9.60;99.90;;;;;;5114172;27;20075;-76
2023/12/24 05:48:50;;;;;;;;;;;10.70;99.90;;;;;;5102847;27;21437;-77
2023/12/24 05:51:16;;;;;;;10.52;2.38;;;10.30;99.90;;;;;;5118832;27;20002;-76
2023/12/24 05:53:42;;;;;;;8.35;2.10;;;10.70;99.90;;;;;;5115820;27;20038;-76
2023/12/24 05:56:08;;;;;;;9.65;2.08;;;10.80;99.90;;;;;;5112037;27;20505;-76
2023/12/24 05:58:34;;;;;;;8.88;2.10;;;10.80;99.90;;;;;;5107101;27;20549;-76
2023/12/24 06:01:00;;;;;;;13.27;2.42;;;9.70;99.90;;;;;;5123416;27;20035;-76
2023/12/24 06:03:26;;;;;;;9.13;2.55;;;10.80;99.90;;;;;;5116077;27;20066;-77
2023/12/24 06:05:51;;;;;;;11.18;2.20;;;10.20;99.90;;;;;;5123332;27;20046;-77
2023/12/24 06:08:17;;;;;;;12.13;1.92;;;10.40;99.90;;;;;;5113968;27;20051;-77
2023/12/24 06:10:43;;;;;;;10.18;2.33;;;10.70;99.90;;;;;;5122873;27;20047;-77
2023/12/24 06:13:09;;;;;;;;;;;10.80;99.90;;;;;;5130283;27;20027;-77
2023/12/24 06:15:35;;;;;;;9.77;2.75;;;10.80;99.90;;;;;;5120749;27;20384;-77
2023/12/24 06:18:01;;;;;;;12.73;2.17;;;10.30;99.90;;;;;;5121820;27;20128;-76
2023/12/24 06:20:29;;;;;;;16.73;2.45;;;10.80;99.90;;;;;;5119645;27;20070;-76
2023/12/24 06:22:55;;;;;;;10.50;2.22;;;9.80;99.90;;;;;;5101252;27;20039;-77
2023/12/24 06:25:21;;;;;;;15.07;2.38;;;9.70;99.90;;;;;;5099170;27;20501;-78
2023/12/24 06:27:47;;;;;;;12.93;2.42;;;9.80;99.90;;;;;;5112984;27;20047;-77
2023/12/24 06:30:13;;;;;;;14.98;2.35;;;10.90;99.90;;;;;;5123453;27;20487;-77
2023/12/24 06:32:41;;;;;;;12.85;2.25;;;10.90;99.90;;;;;;5117028;27;20439;-76
2023/12/24 06:35:08;;;;;;;8.30;1.98;;;11.00;99.90;;;;;;5114056;27;20036;-77
2023/12/24 06:37:33;;;;;;;;;;;9.70;99.90;;;;;;5119942;27;20100;-77
2023/12/24 06:39:59;;;;;;;12.10;2.40;;;9.70;99.90;;;;;;5096367;28;19916;-77
2023/12/24 06:42:25;;;;;;;11.32;2.20;;;10.10;99.90;;;;;;5143833;27;20122;-77
2023/12/24 06:44:50;;;;;;;9.43;1.88;;;10.70;99.90;;;;;;5114582;27;20044;-77
2023/12/24 06:47:16;;;;;;;11.02;1.88;;;9.70;99.90;;;;;;5105576;27;20482;-77
2023/12/24 06:49:44;;;;;;;10.85;2.28;;;10.80;99.90;;;;;;5123870;27;20573;-77
2023/12/24 06:52:11;;;;;;;11.57;2.15;;;10.10;99.90;;;;;;5099232;28;20035;-77
2023/12/24 06:54:36;;;;;;;10.02;1.98;;;10.70;99.90;;;;;;5119677;27;20117;-76
2023/12/24 06:57:03;;;;;;;8.93;1.92;;;10.10;99.90;;;;;;5123767;27;20122;-76
2023/12/24 06:59:29;;;;;;;9.05;2.08;;;10.00;99.90;;;;;;5097077;28;20040;-77
2023/12/24 07:01:54;;;;;;;10.18;2.90;;;10.90;99.90;;;;;;5109939;27;20135;-76
2023/12/24 07:04:20;;;;;;;13.68;2.42;;;10.50;99.90;;;;;;5121589;27;20071;-76
2023/12/24 07:06:46;;;;;;;9.60;1.98;;;9.80;99.90;;;;;;5114976;27;20047;-77
2023/12/24 07:09:12;;;;;;;8.90;1.92;;;9.80;99.90;;;;;;5115048;27;20073;-76
2023/12/24 07:11:38;;;;;;;12.50;2.00;;;10.80;99.90;;;;;;5115300;27;20038;-77
2023/12/24 07:14:03;;;;;;;8.65;2.00;;;11.10;99.90;;;;;;5114777;27;20142;-76
2023/12/24 07:16:29;;;;;;;9.63;2.10;;;10.10;99.90;;;;;;5120077;27;20027;-77
2023/12/24 07:18:55;;;;;;;10.63;2.47;;;10.30;99.90;;;;;;5123833;27;20036;-77
2023/12/24 07:21:21;;;;;;;14.95;2.33;;;10.30;99.90;;;;;;5112596;27;20073;-77
2023/12/24 07:23:46;;;;;;;14.07;2.63;;;10.40;99.90;;;;;;5121907;27;20047;-77
2023/12/24 07:26:12;;;;;;;9.15;2.10;;;10.00;99.90;;;;;;5119486;27;20122;-77
2023/12/24 07:28:38;;;;;;;12.73;2.55;;;10.00;99.90;;;;;;5117360;27;20028;-77
2023/12/24 07:31:04;;;;;;;12.27;2.35;;;11.20;99.90;;;;;;5118789;27;20054;-77
2023/12/24 07:33:30;;;;;;;7.45;2.00;;;11.30;99.90;;;;;;5115114;27;20584;-77
2023/12/24 07:35:55;;;;;;;9.50;2.20;;;10.20;99.90;;;;;;5117923;27;20070;-77
2023/12/24 07:38:21;;;;;;;16.63;3.08;;;10.10;99.90;;;;;;5120161;27;20047;-77
2023/12/24 07:40:47;;;;;;;13.38;2.30;;;10.70;99.90;;;;;;5102595;28;20414;-77
2023/12/24 07:43:12;;;;;;;11.52;2.63;;;10.10;99.90;;;;;;5115495;27;20039;-77
2023/12/24 07:45:38;;;;;;;10.35;2.33;;;11.30;99.90;;;;;;5116300;27;20035;-77
2023/12/24 07:48:04;;;;;;;11.20;2.50;;;10.10;99.90;;;;;;5117933;27;20061;-77
2023/12/24 07:50:30;;;;;;;18.02;2.50;;;10.00;99.90;;;;;;5114120;27;20043;-77
2023/12/24 07:52:55;;;;;;;13.90;2.75;;;10.30;99.90;;;;;;5118855;27;20394;-78
2023/12/24 07:55:21;;;;;;;13.35;2.40;;;11.30;99.90;;;;;;5114574;27;20396;-77
2023/12/24 07:57:47;;;;;;;17.40;2.90;;;10.40;99.90;;;;;;5108564;27;20040;-77
2023/12/24 08:00:13;;;;;;;11.90;2.47;;;10.00;99.90;;;;;;5095644;27;20043;-78
2023/12/24 08:02:39;;;;;;;10.88;2.22;;;10.10;99.90;;;;;;5095628;27;20574;-77
2023/12/24 08:05:05;;;;;;;;;;;10.50;99.90;;;;;;5112490;27;20446;-71
2023/12/24 08:07:31;;;;;;;13.98;2.25;;;10.70;99.90;;;;;;5096362;27;19930;-77
2023/12/24 08:09:57;;;;;;;11.57;2.30;;;11.20;99.90;;;;;;5125364;28;20467;-77
2023/12/24 08:12:23;;;;;;;10.77;2.58;;;11.10;99.90;;;;;;5113648;28;20976;-77
2023/12/24 08:14:48;;;;;;;13.50;2.88;;;10.10;99.90;;;;;;5099198;28;20042;-77
2023/12/24 08:17:14;;;;;;;13.23;2.58;;;10.00;99.90;;;;;;5099784;28;20053;-78
2023/12/24 08:19:40;;;;;;;10.88;2.20;;;11.20;99.90;;;;;;5112253;28;20043;-76
2023/12/24 08:22:06;;;;;;;8.93;2.45;;;10.20;99.90;;;;;;5090223;28;20047;-77
2023/12/24 08:24:31;;;;;;;12.10;2.30;;;10.10;99.90;;;;;;5117585;27;20398;-76
2023/12/24 08:26:57;;;;;;;11.88;2.25;;;10.70;99.90;;;;;;5127710;27;20074;-76
2023/12/24 08:29:23;;;;;;;12.02;2.83;;;11.50;99.90;;;;;;5102025;28;20042;-77
2023/12/24 08:31:48;;;;;;;15.30;2.40;;;10.80;99.90;;;;;;5108369;27;20139;-76
2023/12/24 08:34:14;;;;;;;12.13;2.47;;;11.40;99.90;;;;;;5133326;27;20043;-77
2023/12/24 08:36:40;;;;;;;9.85;2.55;;;11.30;99.90;;;;;;5093494;27;20050;-77
2023/12/24 08:39:05;;;;;;;11.38;2.50;;;10.90;99.90;;;;;;5110052;27;20155;-76
2023/12/24 08:41:31;;;;;;;11.23;2.60;;;10.10;99.90;;;;;;5111645;27;20047;-77
2023/12/24 08:43:57;;;;;;;15.00;2.60;;;10.10;99.90;;;;;;5122359;27;20078;-76
2023/12/24 08:46:23;;;;;;;12.27;2.10;;;10.10;99.90;;;;;;5094771;28;20426;-76
2023/12/24 08:48:48;;;;;;;14.23;2.58;;;11.10;99.90;;;;;;5097418;28;20051;-76
2023/12/24 08:51:14;;;;;;;13.60;2.38;;;10.50;99.90;;;;;;5106392;27;20084;-77
2023/12/24 08:53:40;;;;;;;9.88;2.40;;;11.60;99.90;;;;;;5122662;27;20043;-76
2023/12/24 08:56:06;;;;;;;14.85;2.88;;;11.70;99.90;;;;;;5108469;28;20051;-76
2023/12/24 08:58:32;;;;;;;12.45;2.42;;;11.70;99.90;;;;;;5110255;27;20035;-71
2023/12/24 09:00:57;;;;;;;13.65;2.55;;;11.50;99.90;;;;;;5094460;28;20098;-71
2023/12/24 09:03:23;;;;;;;13.48;2.78;;;11.10;99.90;;;;;;5116842;27;20137;-72
2023/12/24 09:05:49;;;;;;;13.32;2.65;;;10.30;99.90;;;;;;5093397;28;20075;-72
2023/12/24 09:08:14;;;;;;;13.75;2.28;;;11.60;99.90;;;;;;5101669;28;20043;-71
2023/12/24 09:10:41;;;;;;;13.15;2.60;;;11.50;99.90;;;;;;5113221;28;20044;-72
2023/12/24 09:13:07;;;;;;;14.35;2.70;;;11.20;99.90;;;;;;5108874;28;20055;-71
2023/12/24 09:15:32;;;;;;;15.55;2.30;;;10.40;99.90;;;;;;5106014;28;20037;-71
2023/12/24 09:17:58;;;;;;;15.07;2.63;;;10.40;99.90;;;;;;5111502;27;20043;-72
2023/12/24 09:20:24;;;;;;;13.45;2.30;;;10.60;99.90;;;;;;5103311;27;20113;-72
2023/12/24 09:22:50;;;;;;;13.77;2.22;;;10.60;99.90;;;;;;5144680;27;20046;-72
2023/12/24 09:25:16;;;;;;;16.83;2.80;;;10.40;99.90;;;;;;5111564;27;20031;-71
2023/12/24 09:27:41;;;;;;;11.18;2.53;;;11.80;99.90;;;;;;5112753;28;20055;-71
2023/12/24 09:30:07;;;;;;;8.80;1.83;;;10.60;99.90;;;;;;5105504;28;20040;-71
2023/12/24 09:32:33;;;;;;;11.15;2.33;;;10.80;99.90;;;;;;5108349;28;20120;-72
2023/12/24 09:35:00;;;;;;;12.60;2.55;;;10.50;99.90;;;;;;5105819;28;20031;-71
2023/12/24 09:37:26;;;;;;;8.90;1.88;;;10.50;99.90;;;;;;5147064;27;20050;-71
2023/12/24 09:39:52;;;;;;;12.80;2.42;;;11.80;99.90;;;;;;5112601;28;20044;-70
2023/12/24 09:42:18;;;;;;;13.80;2.90;;;11.10;99.90;;;;;;5112484;28;20791;-71
2023/12/24 09:44:45;;;;;;;14.43;2.88;;;12.00;99.90;;;;;;5078678;28;20050;-70
2023/12/24 09:47:10;;;;;;;12.80;2.00;;;11.10;99.90;;;;;;5095272;28;20059;-70
2023/12/24 09:49:36;;;;;;;13.38;2.53;;;12.00;99.90;;;;;;5112625;28;20142;-71
2023/12/24 09:52:02;;;;;;;16.02;2.75;;;11.90;99.90;;;;;;5112240;28;20458;-71
2023/12/24 09:54:28;;;;;;;10.73;2.38;;;12.10;99.90;;;;;;5112442;28;20150;-70
2023/12/24 09:56:55;;;;;;;12.30;1.90;;;12.00;99.90;;;;;;5112561;28;20040;-71
2023/12/24 09:59:21;;;;;;;14.77;2.42;;;10.70;99.90;;;;;;5112083;28;20482;-70
2023/12/24 10:01:47;;;;;;;11.45;2.22;;;10.80;99.90;;;;;;5112721;28;20177;-70
2023/12/24 10:04:15;;;;;;;8.85;2.00;;;11.50;99.90;;;;;;5112516;28;20044;-71
2023/12/24 10:06:57;;;;;;;10.43;2.20;;;12.10;99.90;;;;;;5112198;28;20046;-71
2023/12/24 10:09:44;;;;;;;12.40;2.50;;;11.90;99.90;;;;;;5113455;28;20457;-71
2023/12/24 10:12:10;;;;;;;;;;;12.00;99.90;;;;;;5095447;28;20035;-70
2023/12/24 10:14:37;;;;;;;10.77;1.88;;;11.30;99.90;;;;;;5112055;28;19922;-71
2023/12/24 10:17:03;;;;;;;13.18;2.33;;;10.70;99.90;;;;;;5094752;28;20050;-71
2023/12/24 10:19:30;;;;;;;10.90;2.50;;;10.90;99.90;;;;;;5112091;28;20036;-71
2023/12/24 10:22:06;;;;;;;10.95;2.17;;;10.70;99.90;;;;;;5111955;28;20044;-71
2023/12/24 10:24:40;;;;;;;12.82;2.17;;;12.30;99.90;;;;;;5111611;28;20043;-71
2023/12/24 10:27:14;;;;;;;11.05;2.47;;;12.20;99.90;;;;;;5111633;28;20521;-71
2023/12/24 10:29:42;;;;;;;13.88;2.20;;;10.70;99.90;;;;;;5111438;28;20187;-71
2023/12/24 10:32:10;;;;;;;7.03;1.65;;;10.90;99.90;;;;;;5111501;28;20514;-71
2023/12/24 10:34:37;;;;;;;9.43;1.83;;;12.70;99.90;;;;;;5111597;28;20036;-72
2023/12/24 10:37:17;;;;;;;11.35;2.20;;;11.70;99.90;;;;;;5111708;28;20043;-71
2023/12/24 10:39:44;;;;;;;14.73;2.30;;;10.10;99.90;;;;;;5111858;28;20047;-71
2023/12/24 10:42:09;;;;;;;11.48;2.20;;;10.30;99.90;;;;;;5111097;28;20054;-71
2023/12/24 10:44:36;;;;;;;12.82;2.45;;;12.70;99.90;;;;;;5111410;28;20043;-71
2023/12/24 10:47:03;;;;;;;10.55;2.15;;;12.80;99.90;;;;;;5110339;28;20078;-71
2023/12/24 10:49:29;;;;;;;13.20;2.22;;;10.10;99.90;;;;;;5077613;28;20054;-71
2023/12/24 10:51:56;;;;;;;10.70;1.90;;;12.40;99.90;;;;;;5110818;28;20035;-71
2023/12/24 10:54:22;;;;;;;11.02;1.98;;;12.70;99.90;;;;;;5111337;28;20141;-71
2023/12/24 10:57:15;;;;;;;12.35;2.05;;;13.00;99.90;;;;;;5110994;28;20046;-71
2023/12/24 10:59:56;;;;;;;11.77;1.88;;;10.50;99.90;;;;;;5109834;28;20462;-71
2023/12/24 11:02:22;;;;;;;11.65;2.08;;;12.20;99.90;;;;;;5093128;28;20047;-71
2023/12/24 11:04:49;;;;;;;;;;;11.90;99.90;;;;;;5110672;28;20058;-71
2023/12/24 11:07:35;;;;;;;11.52;1.90;;;10.20;99.90;;;;;;5110511;28;19927;-71
2023/12/24 11:10:05;;;;;;;11.35;2.28;;;10.90;99.90;;;;;;5096167;28;20047;-71
2023/12/24 11:12:35;;;;;;;15.15;3.00;;;13.50;99.90;;;;;;5111058;28;20170;-71
2023/12/24 11:15:03;;;;;;;9.27;1.70;;;11.40;99.90;;;;;;5110763;28;20043;-71
2023/12/24 11:17:31;;;;;;;9.80;1.70;;;11.90;99.90;;;;;;5110575;28;20051;-71
2023/12/24 11:20:25;;;;;;;8.07;2.35;;;13.10;99.90;;;;;;5110771;28;20039;-71
2023/12/24 11:23:06;;;;;;;10.15;1.83;;;10.70;99.90;;;;;;5110598;28;20040;-71
2023/12/24 11:25:46;;;;;;;10.18;1.70;;;10.80;99.90;;;;;;5110652;28;20035;-71
2023/12/24 11:28:25;;;;;;;8.30;1.60;;;11.90;99.90;;;;;;5110471;28;20498;-71
2023/12/24 11:30:50;;;;;;;6.53;1.52;;;11.10;99.90;;;;;;5110368;28;20158;-71
2023/12/24 11:33:28;;;;;;;11.63;1.85;;;13.00;99.90;;;;;;5110609;28;20051;-71
2023/12/24 11:36:00;;;;;;;11.90;2.05;;;12.00;99.90;;;;;;5110704;28;20059;-71
2023/12/24 11:38:35;;;;;;;12.40;2.08;;;11.20;99.90;;;;;;5110637;28;20459;-71
2023/12/24 11:41:13;;;;;;;13.20;1.80;;;12.10;99.90;;;;;;5110055;28;20471;-71
2023/12/24 11:43:50;;;;;;;10.63;2.00;;;11.90;99.90;;;;;;5110266;28;20616;-71
2023/12/24 11:46:15;;;;;;;8.48;1.73;;;12.10;99.90;;;;;;5110371;28;20077;-71
2023/12/24 11:48:41;;;;;;;9.07;1.70;;;11.40;99.90;;;;;;5110091;28;20482;-71
2023/12/24 11:51:09;;;;;;;7.93;1.63;;;12.30;99.90;;;;;;5109925;28;20044;-71
2023/12/24 11:53:42;;;;;;;10.43;1.70;;;13.00;99.90;;;;;;5093174;28;20134;-71
2023/12/24 11:56:15;;;;;;;11.32;1.80;;;13.00;99.90;;;;;;5110136;28;20043;-71
2023/12/24 11:58:55;;;;;;;10.13;1.92;;;12.10;99.90;;;;;;5109925;28;20098;-72
2023/12/24 12:01:24;;;;;;;12.13;2.00;;;13.00;99.90;;;;;;5108227;28;20598;-71
2023/12/24 12:03:56;;;;;;;7.28;1.58;;;12.80;99.90;;;;;;5109605;28;20039;-71
2023/12/24 12:06:21;;;;;;;10.07;1.50;;;13.00;99.90;;;;;;5109562;28;20036;-71
2023/12/24 12:08:47;;;;;;;11.70;2.03;;;12.30;99.90;;;;;;5109555;28;20127;-71
2023/12/24 12:11:14;;;;;;;12.05;2.00;;;11.60;99.90;;;;;;5093048;28;20549;-71
2023/12/24 12:13:40;;;;;;;11.18;2.15;;;12.70;99.90;;;;;;5110158;28;20079;-71
2023/12/24 12:16:05;;;;;;;8.95;1.50;;;11.80;99.90;;;;;;5110045;28;20441;-71
2023/12/24 12:18:31;;;;;;;9.05;2.22;;;11.80;99.90;;;;;;5110088;28;20387;-71
2023/12/24 12:20:57;;;;;;;10.18;1.90;;;12.60;99.90;;;;;;5092650;28;20513;-71
2023/12/24 12:23:22;;;;;;;11.15;1.70;;;12.70;99.90;;;;;;5092632;28;20051;-71
2023/12/24 12:25:48;;;;;;;9.55;1.77;;;12.00;99.90;;;;;;5092818;28;20047;-72
2023/12/24 12:28:14;;;;;;;10.77;1.70;;;12.50;99.90;;;;;;5093013;28;20055;-71
2023/12/24 12:30:40;;;;;;;;;;;12.50;99.90;;;;;;5110252;28;20044;-71
2023/12/24 12:33:07;;;;;;;15.90;2.47;;;12.00;99.90;;;;;;5110980;28;20467;-71
2023/12/24 12:35:33;;;;;;;12.90;2.10;;;12.50;99.90;;;;;;5093014;28;20096;-71
2023/12/24 12:37:59;;;;;;;;;;;12.00;99.90;;;;;;5110051;28;20652;-72
2023/12/24 12:40:25;;;;;;;14.68;2.03;;;13.00;99.90;;;;;;5109817;28;19969;-72
2023/12/24 12:42:50;;;;;;;11.40;1.98;;;12.30;99.90;;;;;;5109375;28;20043;-71
2023/12/24 12:45:16;;;;;;;11.10;1.80;;;12.50;99.90;;;;;;5092625;28;20137;-71